createdAt,value
2018-08-17T00:00:57.715Z,3.90
2018-08-17T00:03:26.095Z,4.47
2018-08-17T00:05:54.680Z,3.73
2018-08-17T00:08:23.084Z,4.07
2018-08-17T00:10:51.539Z,4.00
2018-08-17T00:13:20.130Z,4.30
2018-08-17T00:15:48.208Z,3.67
2018-08-17T00:18:16.713Z,3.80
2018-08-17T00:20:45.296Z,4.97
2018-08-17T00:23:13.687Z,3.73
2018-08-17T00:25:42.433Z,4.27
2018-08-17T00:28:11.046Z,3.80
2018-08-17T00:30:39.604Z,3.40
2018-08-17T00:33:08.012Z,4.60
2018-08-17T00:35:36.669Z,3.80
2018-08-17T00:38:05.489Z,4.13
2018-08-17T00:40:34.087Z,4.50
2018-08-17T00:43:02.688Z,4.33
2018-08-17T00:45:30.976Z,4.27
2018-08-17T00:47:59.179Z,4.80
2018-08-17T00:50:27.538Z,4.27
2018-08-17T00:52:55.821Z,4.87
2018-08-17T00:55:24.222Z,3.90
2018-08-17T00:57:54.746Z,5.00
2018-08-17T01:00:23.107Z,3.77
2018-08-17T01:02:51.626Z,4.17
2018-08-17T01:05:20.010Z,4.17
2018-08-17T01:07:48.132Z,4.07
2018-08-17T01:10:16.610Z,4.43
2018-08-17T01:12:44.624Z,5.13
2018-08-17T01:15:13.037Z,4.10
2018-08-17T01:17:41.742Z,4.67
2018-08-17T01:20:11.697Z,4.70
2018-08-17T01:22:40.217Z,4.50
2018-08-17T01:25:08.722Z,4.67
2018-08-17T01:27:37.463Z,4.63
2018-08-17T01:30:06.749Z,4.93
2018-08-17T01:32:35.292Z,4.30
2018-08-17T01:35:03.958Z,4.73
2018-08-17T01:37:32.443Z,4.30
2018-08-17T01:40:00.730Z,4.80
2018-08-17T01:42:29.204Z,4.50
2018-08-17T01:44:57.691Z,4.17
2018-08-17T01:47:26.254Z,4.70
2018-08-17T01:49:55.047Z,5.13
2018-08-17T01:52:23.494Z,4.23
2018-08-17T01:54:52.128Z,4.30
2018-08-17T01:57:20.346Z,4.20
2018-08-17T01:59:48.950Z,4.40
2018-08-17T02:02:17.380Z,4.07
2018-08-17T02:04:45.846Z,4.10
2018-08-17T02:07:14.545Z,4.20
2018-08-17T02:09:43.102Z,4.17
2018-08-17T02:12:11.814Z,4.37
2018-08-17T02:14:40.278Z,4.40
2018-08-17T02:17:08.897Z,4.33
2018-08-17T02:19:37.277Z,4.13
2018-08-17T02:22:05.844Z,4.40
2018-08-17T02:24:34.448Z,5.70
2018-08-17T02:27:02.837Z,4.50
2018-08-17T02:29:31.516Z,4.07
2018-08-17T02:32:00.295Z,4.73
2018-08-17T02:34:28.660Z,4.10
2018-08-17T02:36:57.088Z,4.23
2018-08-17T02:39:25.492Z,5.00
2018-08-17T02:41:54.082Z,5.07
2018-08-17T02:44:22.585Z,4.80
2018-08-17T02:46:51.155Z,5.20
2018-08-17T02:49:19.615Z,4.90
2018-08-17T02:51:48.148Z,4.40
2018-08-17T02:54:17.652Z,5.00
2018-08-17T02:56:46.101Z,4.80
2018-08-17T02:59:14.531Z,5.33
2018-08-17T03:01:42.988Z,4.73
2018-08-17T03:04:11.496Z,5.03
2018-08-17T03:06:39.943Z,5.27
2018-08-17T03:09:10.493Z,5.40
2018-08-17T03:11:38.930Z,5.43
2018-08-17T03:14:07.609Z,5.20
2018-08-17T03:16:35.949Z,5.90
2018-08-17T03:19:04.579Z,5.70
2018-08-17T03:21:33.001Z,5.60
2018-08-17T03:24:01.112Z,5.30
2018-08-17T03:26:29.411Z,5.90
2018-08-17T03:28:57.769Z,6.00
2018-08-17T03:31:26.181Z,5.20
2018-08-17T03:33:54.443Z,5.43
2018-08-17T03:36:22.763Z,5.80
2018-08-17T03:38:51.311Z,6.33
2018-08-17T03:41:19.741Z,6.10
2018-08-17T03:43:47.816Z,6.50
2018-08-17T03:46:16.327Z,6.43
2018-08-17T03:48:44.656Z,5.77
2018-08-17T03:51:12.902Z,5.40
2018-08-17T03:53:41.276Z,6.23
2018-08-17T03:56:09.690Z,6.20
2018-08-17T03:58:39.353Z,5.37
2018-08-17T04:01:08.060Z,5.17
2018-08-17T04:03:36.726Z,5.73
2018-08-17T04:06:06.101Z,6.50
2018-08-17T04:08:34.813Z,6.53
2018-08-17T04:11:03.422Z,6.00
2018-08-17T04:13:31.732Z,6.77
2018-08-17T04:16:00.361Z,5.30
2018-08-17T04:18:28.651Z,5.70
2018-08-17T04:20:57.112Z,6.43
2018-08-17T04:23:25.339Z,6.30
2018-08-17T04:25:53.805Z,6.40
2018-08-17T04:28:22.285Z,6.80
2018-08-17T04:30:50.751Z,6.30
2018-08-17T04:33:19.339Z,7.13
2018-08-17T04:35:47.724Z,6.30
2018-08-17T04:38:16.016Z,5.77
2018-08-17T04:40:44.459Z,7.20
2018-08-17T04:43:12.936Z,7.00
2018-08-17T04:45:41.344Z,7.60
2018-08-17T04:48:09.906Z,6.97
2018-08-17T04:50:38.415Z,6.90
2018-08-17T04:53:06.782Z,6.40
2018-08-17T04:55:35.065Z,6.10
2018-08-17T04:58:03.548Z,6.90
2018-08-17T05:00:32.139Z,7.37
2018-08-17T05:03:00.618Z,6.77
2018-08-17T05:05:40.266Z,6.40
2018-08-17T05:08:18.064Z,6.40
2018-08-17T05:10:46.783Z,6.90
2018-08-17T05:13:15.209Z,8.13
2018-08-17T05:15:43.831Z,6.90
2018-08-17T05:18:12.283Z,6.73
2018-08-17T05:20:40.408Z,6.70
2018-08-17T05:23:09.133Z,7.10
2018-08-17T05:25:37.666Z,7.10
2018-08-17T05:28:06.453Z,7.83
2018-08-17T05:30:34.943Z,7.90
2018-08-17T05:33:03.365Z,7.30
2018-08-17T05:35:31.871Z,7.60
2018-08-17T05:38:00.268Z,6.30
2018-08-17T05:40:28.607Z,6.40
2018-08-17T05:42:57.274Z,7.43
2018-08-17T05:45:25.660Z,7.10
2018-08-17T05:47:54.451Z,7.53
2018-08-17T05:50:22.980Z,7.30
2018-08-17T05:52:51.289Z,7.50
2018-08-17T05:55:19.702Z,7.70
2018-08-17T05:57:48.095Z,7.73
2018-08-17T06:00:16.699Z,8.53
2018-08-17T06:02:45.049Z,8.03
2018-08-17T06:05:13.661Z,7.37
2018-08-17T06:07:41.985Z,7.07
2018-08-17T06:10:10.352Z,6.53
2018-08-17T06:12:38.709Z,8.53
2018-08-17T06:15:07.549Z,9.33
2018-08-17T06:17:35.921Z,8.30
2018-08-17T06:20:05.118Z,7.93
2018-08-17T06:22:33.552Z,7.67
2018-08-17T06:25:06.574Z,8.33
2018-08-17T06:27:35.127Z,8.30
2018-08-17T06:30:04.103Z,8.43
2018-08-17T06:32:34.259Z,8.43
2018-08-17T06:35:03.128Z,8.33
2018-08-17T06:37:32.128Z,7.83
2018-08-17T06:40:00.862Z,8.00
2018-08-17T06:42:29.763Z,7.83
2018-08-17T06:44:58.297Z,8.50
2018-08-17T06:47:27.043Z,8.33
2018-08-17T06:49:55.666Z,7.60
2018-08-17T06:52:24.103Z,8.10
2018-08-17T06:54:52.590Z,7.20
2018-08-17T06:57:20.764Z,7.17
2018-08-17T06:59:49.058Z,7.87
2018-08-17T07:02:17.397Z,7.17
2018-08-17T07:04:45.711Z,8.43
2018-08-17T07:07:14.091Z,8.33
2018-08-17T07:09:42.447Z,7.60
2018-08-17T07:12:10.885Z,7.63
2018-08-17T07:14:39.224Z,6.50
2018-08-17T07:17:07.512Z,8.27
2018-08-17T07:19:35.906Z,7.40
2018-08-17T07:22:04.283Z,8.47
2018-08-17T07:24:32.654Z,8.27
2018-08-17T07:27:01.141Z,8.50
2018-08-17T07:29:30.781Z,7.50
2018-08-17T07:31:59.590Z,7.10
2018-08-17T07:34:28.328Z,5.97
2018-08-17T07:36:56.722Z,7.87
2018-08-17T07:39:25.192Z,6.20
2018-08-17T07:41:53.824Z,6.33
2018-08-17T07:44:22.254Z,6.43
2018-08-17T07:46:50.634Z,5.87
2018-08-17T07:49:18.917Z,7.30
2018-08-17T07:51:47.347Z,7.00
2018-08-17T07:54:15.899Z,7.53
2018-08-17T07:56:44.275Z,6.33
2018-08-17T07:59:12.956Z,6.57
2018-08-17T08:01:41.304Z,6.97
2018-08-17T08:04:09.936Z,7.33
2018-08-17T08:06:38.904Z,6.37
2018-08-17T08:09:09.630Z,6.60
2018-08-17T08:11:38.550Z,6.43
2018-08-17T08:14:09.249Z,7.43
2018-08-17T08:16:37.874Z,6.80
2018-08-17T08:19:10.784Z,6.80
2018-08-17T08:21:40.361Z,6.40
2018-08-17T08:24:09.473Z,7.60
2018-08-17T08:26:38.570Z,6.60
2018-08-17T08:29:07.900Z,7.43
2018-08-17T08:31:36.373Z,6.77
2018-08-17T08:34:05.862Z,8.10
2018-08-17T08:36:36.727Z,7.10
2018-08-17T08:39:09.691Z,6.63
2018-08-17T08:41:38.138Z,7.73
2018-08-17T08:44:07.188Z,8.03
2018-08-17T08:46:36.091Z,7.53
2018-08-17T08:49:05.101Z,7.43
2018-08-17T08:51:33.756Z,6.63
2018-08-17T08:54:02.270Z,7.33
2018-08-17T08:56:30.988Z,7.40
2018-08-17T08:59:00.193Z,8.00
2018-08-17T09:01:28.796Z,7.47
2018-08-17T09:03:57.185Z,7.23
2018-08-17T09:06:25.774Z,7.40
2018-08-17T09:08:54.219Z,8.10
2018-08-17T09:11:22.842Z,7.20
2018-08-17T09:13:51.214Z,7.70
2018-08-17T09:16:19.901Z,6.70
2018-08-17T09:18:48.466Z,6.13
2018-08-17T09:21:17.158Z,7.13
2018-08-17T09:23:45.749Z,7.77
2018-08-17T09:26:14.686Z,9.00
2018-08-17T09:28:43.246Z,7.30
2018-08-17T09:31:11.652Z,7.60
2018-08-17T09:33:44.556Z,7.40
2018-08-17T09:36:14.298Z,7.30
2018-08-17T09:38:43.564Z,7.03
2018-08-17T09:41:12.819Z,7.93
2018-08-17T09:43:43.529Z,7.50
2018-08-17T09:46:12.749Z,7.47
2018-08-17T09:48:42.866Z,7.47
2018-08-17T09:51:12.017Z,7.40
2018-08-17T09:53:40.331Z,8.17
2018-08-17T09:56:11.225Z,7.37
2018-08-17T09:58:41.604Z,7.87
2018-08-17T10:01:15.767Z,7.40
2018-08-17T10:03:48.927Z,8.80
2018-08-17T10:06:23.195Z,8.40
2018-08-17T10:08:57.355Z,8.23
2018-08-17T10:11:25.886Z,7.73
2018-08-17T10:13:54.345Z,8.13
2018-08-17T10:16:22.793Z,9.20
2018-08-17T10:18:51.198Z,8.23
2018-08-17T10:21:24.339Z,7.77
2018-08-17T10:23:53.347Z,8.37
2018-08-17T10:26:23.158Z,6.80
2018-08-17T10:28:52.344Z,7.17
2018-08-17T10:31:21.103Z,7.37
2018-08-17T10:33:50.661Z,8.73
2018-08-17T10:36:19.594Z,7.90
2018-08-17T10:38:48.259Z,9.10
2018-08-17T10:41:17.068Z,8.70
2018-08-17T10:43:46.484Z,8.20
2018-08-17T10:46:15.184Z,7.73
2018-08-17T10:48:44.907Z,7.93
2018-08-17T10:51:14.178Z,8.00
2018-08-17T10:53:44.702Z,9.20
2018-08-17T10:56:13.794Z,8.50
2018-08-17T10:58:42.205Z,8.70
2018-08-17T11:01:10.686Z,7.70
2018-08-17T11:03:39.235Z,8.37
2018-08-17T11:06:07.976Z,8.00
2018-08-17T11:08:37.190Z,8.27
2018-08-17T11:11:06.353Z,9.07
2018-08-17T11:13:35.024Z,9.60
2018-08-17T11:16:03.512Z,8.00
2018-08-17T11:18:32.173Z,7.83
2018-08-17T11:21:01.274Z,8.60
2018-08-17T11:23:30.532Z,7.90
2018-08-17T11:25:59.309Z,8.20
2018-08-17T11:28:27.958Z,8.20
2018-08-17T11:30:56.551Z,7.50
2018-08-17T11:33:29.246Z,7.97
2018-08-17T11:35:59.204Z,7.63
2018-08-17T11:38:27.915Z,7.47
2018-08-17T11:40:56.600Z,5.90
2018-08-17T11:43:25.090Z,7.60
2018-08-17T11:45:53.637Z,7.87
2018-08-17T11:48:27.814Z,7.50
2018-08-17T11:50:56.997Z,7.10
2018-08-17T11:53:25.801Z,6.70
2018-08-17T11:55:54.677Z,6.47
2018-08-17T11:58:23.459Z,7.00
2018-08-17T12:00:52.268Z,7.40
2018-08-17T12:03:20.924Z,7.37
2018-08-17T12:05:49.944Z,7.30
2018-08-17T12:08:20.134Z,6.50
2018-08-17T12:11:05.814Z,7.00
2018-08-17T12:13:37.569Z,7.73
2018-08-17T12:16:06.787Z,7.40
2018-08-17T12:18:35.181Z,6.80
2018-08-17T12:21:03.715Z,7.83
2018-08-17T12:23:32.381Z,7.57
2018-08-17T12:26:00.855Z,6.97
2018-08-17T12:28:35.839Z,7.20
2018-08-17T12:31:04.274Z,7.33
2018-08-17T12:33:32.791Z,7.53
2018-08-17T12:36:01.101Z,7.17
2018-08-17T12:38:29.478Z,7.20
2018-08-17T12:40:58.814Z,6.87
2018-08-17T12:43:29.634Z,7.20
2018-08-17T12:45:59.425Z,7.40
2018-08-17T12:48:27.923Z,6.27
2018-08-17T12:51:01.951Z,6.93
2018-08-17T12:53:30.850Z,6.50
2018-08-17T12:55:59.411Z,7.23
2018-08-17T12:58:27.875Z,6.70
2018-08-17T13:00:55.995Z,6.60
2018-08-17T13:03:24.817Z,6.17
2018-08-17T13:05:53.386Z,7.23
2018-08-17T13:08:21.553Z,6.93
2018-08-17T13:10:50.232Z,6.43
2018-08-17T13:13:18.702Z,6.30
2018-08-17T13:15:53.578Z,7.03
2018-08-17T13:18:24.304Z,6.67
2018-08-17T13:20:52.958Z,6.20
2018-08-17T13:23:21.868Z,5.90
2018-08-17T13:25:50.537Z,6.43
2018-08-17T13:28:19.026Z,5.83
2018-08-17T13:30:48.116Z,6.13
2018-08-17T13:33:16.872Z,5.97
2018-08-17T13:35:45.975Z,5.97
2018-08-17T13:38:14.569Z,5.93
2018-08-17T13:40:43.078Z,6.23
2018-08-17T13:43:11.796Z,6.43
2018-08-17T13:45:40.501Z,6.90
2018-08-17T13:48:08.825Z,6.50
2018-08-17T13:50:37.639Z,6.20
2018-08-17T13:53:06.359Z,6.27
2018-08-17T13:55:34.784Z,6.13
2018-08-17T13:58:03.805Z,6.23
2018-08-17T14:00:32.350Z,5.63
2018-08-17T14:03:02.966Z,5.80
2018-08-17T14:05:31.753Z,5.87
2018-08-17T14:08:00.396Z,8.27
2018-08-17T14:10:29.512Z,6.70
2018-08-17T14:12:57.915Z,6.30
2018-08-17T14:15:26.505Z,6.33
2018-08-17T14:17:55.463Z,6.13
2018-08-17T14:20:23.997Z,6.10
2018-08-17T14:22:52.112Z,6.50
2018-08-17T14:25:20.545Z,7.40
2018-08-17T14:27:49.535Z,6.70
2018-08-17T14:30:18.906Z,6.40
2018-08-17T14:32:47.739Z,5.97
2018-08-17T14:35:16.548Z,5.80
2018-08-17T14:37:45.365Z,6.13
2018-08-17T14:40:15.043Z,6.63
2018-08-17T14:42:43.414Z,6.33
2018-08-17T14:45:12.071Z,5.93
2018-08-17T14:47:40.658Z,5.83
2018-08-17T14:50:11.775Z,5.70
2018-08-17T14:52:40.306Z,5.93
2018-08-17T14:55:09.552Z,5.40
2018-08-17T14:57:37.946Z,5.50
2018-08-17T15:00:10.330Z,5.50
2018-08-17T15:02:38.674Z,5.73
2018-08-17T15:05:09.264Z,5.73
2018-08-17T15:07:37.967Z,5.70
2018-08-17T15:10:07.979Z,5.57
2018-08-17T15:12:36.742Z,6.33
2018-08-17T15:15:05.105Z,5.70
2018-08-17T15:17:33.578Z,5.60
2018-08-17T15:20:02.065Z,5.97
2018-08-17T15:22:30.604Z,5.80
2018-08-17T15:24:58.960Z,5.90
2018-08-17T15:27:27.527Z,5.60
2018-08-17T15:29:56.073Z,5.93
2018-08-17T15:32:24.605Z,6.00
2018-08-17T15:34:53.270Z,5.33
2018-08-17T15:37:22.183Z,6.07
2018-08-17T15:39:51.665Z,6.00
2018-08-17T15:42:20.402Z,6.30
2018-08-17T15:44:48.959Z,5.80
2018-08-17T15:47:17.545Z,6.30
2018-08-17T15:50:18.407Z,6.20
2018-08-17T15:52:46.951Z,6.30
2018-08-17T15:55:15.535Z,6.57
2018-08-17T15:57:44.416Z,5.30
2018-08-17T16:00:17.355Z,6.10
2018-08-17T16:02:46.086Z,5.80
2018-08-17T16:05:14.563Z,5.40
2018-08-17T16:07:43.040Z,5.10
2018-08-17T16:10:13.616Z,5.83
2018-08-17T16:12:42.158Z,4.57
2018-08-17T16:15:11.308Z,4.30
2018-08-17T16:17:39.827Z,4.17
2018-08-17T16:20:09.751Z,4.10
2018-08-17T16:22:38.133Z,4.43
2018-08-17T16:25:07.622Z,4.93
2018-08-17T16:30:39.611Z,4.67
2018-08-17T16:33:26.990Z,5.43
2018-08-17T16:35:55.627Z,4.77
2018-08-17T16:38:23.995Z,4.80
2018-08-17T16:40:53.534Z,4.90
2018-08-17T16:43:30.229Z,4.90
2018-08-17T16:45:58.744Z,4.93
2018-08-17T16:48:27.105Z,4.37
2018-08-17T16:50:55.581Z,4.03
2018-08-17T16:53:24.115Z,4.53
2018-08-17T16:55:52.893Z,4.30
2018-08-17T16:58:21.504Z,4.90
2018-08-17T17:00:50.365Z,6.20
2018-08-17T17:03:25.132Z,5.40
2018-08-17T17:05:57.788Z,5.33
2018-08-17T17:08:26.299Z,5.47
2018-08-17T17:10:54.731Z,4.50
2018-08-17T17:13:23.216Z,6.00
2018-08-17T17:15:52.126Z,5.50
2018-08-17T17:18:20.620Z,6.10
2018-08-17T17:20:48.890Z,6.80
2018-08-17T17:23:17.250Z,5.53
2018-08-17T17:25:45.736Z,5.83
2018-08-17T17:28:14.488Z,5.70
2018-08-17T17:30:47.270Z,6.10
2018-08-17T17:33:15.754Z,6.03
2018-08-17T17:35:44.855Z,6.10
2018-08-17T17:38:13.414Z,6.70
2018-08-17T17:40:42.227Z,6.53
2018-08-17T17:43:10.897Z,6.53
2018-08-17T17:45:39.629Z,6.50
2018-08-17T17:48:08.918Z,6.90
2018-08-17T17:50:37.857Z,5.93
2018-08-17T17:53:06.697Z,6.20
2018-08-17T17:55:44.293Z,5.73
2018-08-17T17:58:13.071Z,5.40
2018-08-17T18:00:45.815Z,6.40
2018-08-17T18:03:14.468Z,6.27
2018-08-17T18:05:43.209Z,7.43
2018-08-17T18:08:16.849Z,6.97
2018-08-17T18:10:45.163Z,6.60
2018-08-17T18:13:13.775Z,7.07
2018-08-17T18:15:42.206Z,6.57
2018-08-17T18:18:10.948Z,6.73
2018-08-17T18:20:39.159Z,7.13
2018-08-17T18:23:07.547Z,6.60
2018-08-17T18:25:35.927Z,5.80
2018-08-17T18:28:04.761Z,6.13
2018-08-17T18:30:33.246Z,7.40
2018-08-17T18:33:01.378Z,6.63
2018-08-17T18:35:30.166Z,6.37
2018-08-17T18:37:58.563Z,5.70
2018-08-17T18:40:26.910Z,7.60
2018-08-17T18:42:55.400Z,7.47
2018-08-17T18:45:23.669Z,6.60
2018-08-17T18:47:52.380Z,6.93
2018-08-17T18:50:20.861Z,6.37
2018-08-17T18:52:49.413Z,7.23
2018-08-17T18:55:18.008Z,6.70
2018-08-17T18:57:46.523Z,7.07
2018-08-17T19:00:14.847Z,7.90
2018-08-17T19:02:43.563Z,7.90
2018-08-17T19:05:11.776Z,7.10
2018-08-17T19:07:40.412Z,8.53
2018-08-17T19:10:09.884Z,7.13
2018-08-17T19:12:38.355Z,7.57
2018-08-17T19:15:09.753Z,6.70
2018-08-17T19:17:38.150Z,7.10
2018-08-17T19:20:07.940Z,7.67
2018-08-17T19:22:37.133Z,7.63
2018-08-17T19:25:06.638Z,8.90
2018-08-17T19:27:36.370Z,7.43
2018-08-17T19:30:26.858Z,7.37
2018-08-17T19:32:56.774Z,8.20
2018-08-17T19:35:25.214Z,7.30
2018-08-17T19:37:53.634Z,9.80
2018-08-17T19:40:22.583Z,9.53
2018-08-17T19:42:50.890Z,8.63
2018-08-17T19:45:19.918Z,9.03
2018-08-17T19:47:48.437Z,9.03
2018-08-17T19:50:17.839Z,9.83
2018-08-17T19:52:46.013Z,9.37
2018-08-17T19:55:15.462Z,8.90
2018-08-17T19:57:43.885Z,9.30
2018-08-17T20:00:13.121Z,8.60
2018-08-17T20:02:41.910Z,9.30
2018-08-17T20:05:10.885Z,8.30
2018-08-17T20:07:39.463Z,10.10
2018-08-17T20:10:09.185Z,9.73
2018-08-17T20:12:37.570Z,8.43
2018-08-17T20:15:06.166Z,11.27
2018-08-17T20:17:34.654Z,10.57
2018-08-17T20:20:03.007Z,9.60
2018-08-17T20:22:31.276Z,10.10
2018-08-17T20:24:59.968Z,10.60
2018-08-17T20:27:28.482Z,11.30
2018-08-17T20:30:05.194Z,9.93
2018-08-17T20:32:33.602Z,9.73
2018-08-17T20:35:01.605Z,11.57
2018-08-17T20:37:29.984Z,9.07
2018-08-17T20:39:58.265Z,10.40
2018-08-17T20:42:26.795Z,10.57
2018-08-17T20:44:55.466Z,12.07
2018-08-17T20:47:23.769Z,9.80
2018-08-17T20:49:52.078Z,10.90
2018-08-17T20:52:20.662Z,10.90
2018-08-17T20:54:49.052Z,11.70
2018-08-17T20:57:17.527Z,11.87
2018-08-17T20:59:45.874Z,9.93
2018-08-17T21:02:14.717Z,10.33
2018-08-17T21:04:43.176Z,12.07
2018-08-17T21:07:11.571Z,12.17
2018-08-17T21:09:39.999Z,10.37
2018-08-17T21:12:08.512Z,10.43
2018-08-17T21:14:36.838Z,9.67
2018-08-17T21:17:05.234Z,12.13
2018-08-17T21:19:38.940Z,11.57
2018-08-17T21:22:07.571Z,10.63
2018-08-17T21:24:35.856Z,11.00
2018-08-17T21:27:04.683Z,10.13
2018-08-17T21:29:33.166Z,12.93
2018-08-17T21:32:01.807Z,9.87
2018-08-17T21:34:30.376Z,10.50
2018-08-17T21:36:58.659Z,11.57
2018-08-17T21:39:27.276Z,10.80
2018-08-17T21:41:55.721Z,12.17
2018-08-17T21:44:24.095Z,10.90
2018-08-17T21:46:57.908Z,10.00
2018-08-17T21:49:26.597Z,12.10
2018-08-17T21:51:57.514Z,11.97
2018-08-17T21:54:26.104Z,12.60
2018-08-17T21:56:54.959Z,12.47
2018-08-17T21:59:23.543Z,12.10
2018-08-17T22:01:51.875Z,11.73
2018-08-17T22:04:20.353Z,11.57
2018-08-17T22:06:48.706Z,10.10
2018-08-17T22:09:26.942Z,13.23
2018-08-17T22:11:55.298Z,12.30
2018-08-17T22:14:23.345Z,11.67
2018-08-17T22:16:51.864Z,12.93
2018-08-17T22:19:31.617Z,13.00
2018-08-17T22:21:59.935Z,13.07
2018-08-17T22:24:28.321Z,10.63
2018-08-17T22:26:56.458Z,14.23
2018-08-17T22:29:24.791Z,11.83
2018-08-17T22:31:53.152Z,13.67
2018-08-17T22:34:21.794Z,13.00
2018-08-17T22:36:50.433Z,13.00
2018-08-17T22:39:19.010Z,11.97
2018-08-17T22:41:47.641Z,12.50
2018-08-17T22:44:21.546Z,11.87
2018-08-17T22:47:01.194Z,13.90
2018-08-17T22:49:29.761Z,15.90
2018-08-17T22:51:57.821Z,12.80
2018-08-17T22:54:26.755Z,12.23
2018-08-17T22:56:55.414Z,12.50
2018-08-17T22:59:24.746Z,12.50
2018-08-17T23:01:53.091Z,12.83
2018-08-17T23:04:21.624Z,12.07
2018-08-17T23:06:50.230Z,12.90
2018-08-17T23:09:18.596Z,12.57
2018-08-17T23:11:46.983Z,13.03
2018-08-17T23:14:16.299Z,13.00
2018-08-17T23:16:46.271Z,12.87
2018-08-17T23:19:14.627Z,12.90
2018-08-17T23:21:42.966Z,13.27
2018-08-17T23:24:11.431Z,13.83
2018-08-17T23:26:45.423Z,15.50
2018-08-17T23:29:13.942Z,13.30
2018-08-17T23:31:42.296Z,14.27
2018-08-17T23:34:10.595Z,13.87
2018-08-17T23:36:39.011Z,13.77
2018-08-17T23:39:08.637Z,14.77
2018-08-17T23:41:37.100Z,15.37
2018-08-17T23:44:05.226Z,14.27
2018-08-17T23:46:33.626Z,14.10
2018-08-17T23:49:01.906Z,12.80
2018-08-17T23:51:30.558Z,14.83
2018-08-17T23:53:58.900Z,13.80
2018-08-17T23:56:27.399Z,13.10
2018-08-17T23:58:55.880Z,14.60
